sensor_id;sensor_type;location;lat;lon;timestamp;pressure;altitude;pressure_sealevel;temperature;humidity
4085;BME280;2057;50.858;6.572;2024-03-02T00:00:04;98853.41;;;7.49;100.00
4085;BME280;2057;50.858;6.572;2024-03-02T00:02:40;98854.25;;;7.50;100.00
4085;BME280;2057;50.858;6.572;2024-03-02T00:05:06;98850.97;;;7.52;99.75
4085;BME280;2057;50.858;6.572;2024-03-02T00:07:31;98841.91;;;7.58;99.54
4085;BME280;2057;50.858;6.572;2024-03-02T00:09:57;98840.34;;;7.61;99.30
4085;BME280;2057;50.858;6.572;2024-03-02T00:12:22;98839.53;;;7.62;99.07
4085;BME280;2057;50.858;6.572;2024-03-02T00:14:47;98837.06;;;7.64;99.53
4085;BME280;2057;50.858;6.572;2024-03-02T00:17:24;98840.38;;;7.63;99.79
4085;BME280;2057;50.858;6.572;2024-03-02T00:19:50;98839.47;;;7.61;99.56
4085;BME280;2057;50.858;6.572;2024-03-02T00:22:15;98827.94;;;7.69;99.33
4085;BME280;2057;50.858;6.572;2024-03-02T00:24:41;98833.72;;;7.65;99.73
4085;BME280;2057;50.858;6.572;2024-03-02T00:27:07;98832.16;;;7.68;98.94
4085;BME280;2057;50.858;6.572;2024-03-02T00:29:32;98833.13;;;7.72;98.65
4085;BME280;2057;50.858;6.572;2024-03-02T00:31:58;98832.13;;;7.67;99.45
4085;BME280;2057;50.858;6.572;2024-03-02T00:34:23;98832.84;;;7.64;99.64
4085;BME280;2057;50.858;6.572;2024-03-02T00:36:48;98838.97;;;7.71;98.77
4085;BME280;2057;50.858;6.572;2024-03-02T00:39:19;98835.44;;;7.66;99.27
4085;BME280;2057;50.858;6.572;2024-03-02T00:41:44;98823.63;;;7.65;99.40
4085;BME280;2057;50.858;6.572;2024-03-02T00:44:17;98832.91;;;7.66;99.17
4085;BME280;2057;50.858;6.572;2024-03-02T00:46:48;98833.56;;;7.60;99.86
4085;BME280;2057;50.858;6.572;2024-03-02T00:49:24;98836.94;;;7.61;99.90
4085;BME280;2057;50.858;6.572;2024-03-02T00:51:54;98834.09;;;7.51;100.00
4085;BME280;2057;50.858;6.572;2024-03-02T00:54:21;98836.69;;;7.53;100.00
4085;BME280;2057;50.858;6.572;2024-03-02T00:56:47;98845.88;;;7.51;100.00
4085;BME280;2057;50.858;6.572;2024-03-02T00:59:13;98844.00;;;7.45;100.00
4085;BME280;2057;50.858;6.572;2024-03-02T01:01:38;98840.50;;;7.42;100.00
4085;BME280;2057;50.858;6.572;2024-03-02T01:04:07;98835.34;;;7.38;100.00
4085;BME280;2057;50.858;6.572;2024-03-02T01:06:32;98836.84;;;7.33;100.00
4085;BME280;2057;50.858;6.572;2024-03-02T01:08:58;98836.09;;;7.36;100.00
4085;BME280;2057;50.858;6.572;2024-03-02T01:11:24;98835.41;;;7.40;100.00
4085;BME280;2057;50.858;6.572;2024-03-02T01:13:49;98838.78;;;7.41;100.00
4085;BME280;2057;50.858;6.572;2024-03-02T01:16:15;98838.91;;;7.44;100.00
4085;BME280;2057;50.858;6.572;2024-03-02T01:18:41;98839.88;;;7.47;100.00
4085;BME280;2057;50.858;6.572;2024-03-02T01:21:07;98830.56;;;7.46;100.00
4085;BME280;2057;50.858;6.572;2024-03-02T01:23:35;98830.69;;;7.49;100.00
4085;BME280;2057;50.858;6.572;2024-03-02T01:26:00;98835.13;;;7.57;100.00
4085;BME280;2057;50.858;6.572;2024-03-02T01:28:25;98835.78;;;7.51;100.00
4085;BME280;2057;50.858;6.572;2024-03-02T01:30:51;98838.31;;;7.51;100.00
4085;BME280;2057;50.858;6.572;2024-03-02T01:33:17;98838.25;;;7.49;100.00
4085;BME280;2057;50.858;6.572;2024-03-02T01:35:43;98837.19;;;7.43;100.00
4085;BME280;2057;50.858;6.572;2024-03-02T01:38:08;98833.84;;;7.44;100.00
4085;BME280;2057;50.858;6.572;2024-03-02T01:40:34;98834.50;;;7.38;100.00
4085;BME280;2057;50.858;6.572;2024-03-02T01:43:00;98833.91;;;7.45;100.00
4085;BME280;2057;50.858;6.572;2024-03-02T01:45:28;98830.44;;;7.43;100.00
4085;BME280;2057;50.858;6.572;2024-03-02T01:47:55;98823.63;;;7.41;100.00
4085;BME280;2057;50.858;6.572;2024-03-02T01:50:31;98824.41;;;7.38;100.00
4085;BME280;2057;50.858;6.572;2024-03-02T01:52:56;98849.00;;;7.44;100.00
4085;BME280;2057;50.858;6.572;2024-03-02T01:55:22;98841.66;;;7.51;100.00
4085;BME280;2057;50.858;6.572;2024-03-02T01:57:51;98848.75;;;7.62;100.00
4085;BME280;2057;50.858;6.572;2024-03-02T02:00:19;98847.19;;;7.65;100.00
4085;BME280;2057;50.858;6.572;2024-03-02T02:02:46;98849.88;;;7.70;100.00
4085;BME280;2057;50.858;6.572;2024-03-02T02:05:11;98853.19;;;7.69;100.00
4085;BME280;2057;50.858;6.572;2024-03-02T02:07:37;98853.38;;;7.74;100.00
4085;BME280;2057;50.858;6.572;2024-03-02T02:10:05;98854.41;;;7.79;99.88
4085;BME280;2057;50.858;6.572;2024-03-02T02:12:31;98846.00;;;7.80;100.00
4085;BME280;2057;50.858;6.572;2024-03-02T02:14:57;98853.88;;;7.89;100.00
4085;BME280;2057;50.858;6.572;2024-03-02T02:17:22;98844.53;;;7.87;99.63
4085;BME280;2057;50.858;6.572;2024-03-02T02:19:50;98848.38;;;8.01;97.90
4085;BME280;2057;50.858;6.572;2024-03-02T02:22:15;98851.91;;;8.06;97.33
4085;BME280;2057;50.858;6.572;2024-03-02T02:24:41;98842.22;;;8.20;95.02
4085;BME280;2057;50.858;6.572;2024-03-02T02:27:10;98845.13;;;8.32;93.43
4085;BME280;2057;50.858;6.572;2024-03-02T02:29:35;98847.13;;;8.43;91.69
4085;BME280;2057;50.858;6.572;2024-03-02T02:32:01;98845.34;;;8.39;92.54
4085;BME280;2057;50.858;6.572;2024-03-02T02:34:29;98841.72;;;8.30;93.73
4085;BME280;2057;50.858;6.572;2024-03-02T02:36:54;98821.00;;;8.42;93.04
4085;BME280;2057;50.858;6.572;2024-03-02T02:39:21;98815.94;;;8.42;93.37
4085;BME280;2057;50.858;6.572;2024-03-02T02:41:48;98829.28;;;8.38;93.85
4085;BME280;2057;50.858;6.572;2024-03-02T02:44:13;98836.97;;;8.41;93.66
4085;BME280;2057;50.858;6.572;2024-03-02T02:46:39;98831.19;;;8.45;94.49
4085;BME280;2057;50.858;6.572;2024-03-02T02:49:07;98828.59;;;8.42;94.83
4085;BME280;2057;50.858;6.572;2024-03-02T02:51:34;98830.31;;;8.43;95.16
4085;BME280;2057;50.858;6.572;2024-03-02T02:53:59;98825.13;;;8.39;95.96
4085;BME280;2057;50.858;6.572;2024-03-02T02:56:24;98833.31;;;8.31;96.96
4085;BME280;2057;50.858;6.572;2024-03-02T02:58:50;98832.28;;;8.25;98.51
4085;BME280;2057;50.858;6.572;2024-03-02T03:01:16;98826.97;;;8.17;99.74
4085;BME280;2057;50.858;6.572;2024-03-02T03:03:45;98827.88;;;8.19;99.32
4085;BME280;2057;50.858;6.572;2024-03-02T03:06:11;98834.78;;;8.25;98.53
4085;BME280;2057;50.858;6.572;2024-03-02T03:08:36;98826.34;;;8.24;98.24
4085;BME280;2057;50.858;6.572;2024-03-02T03:11:02;98838.09;;;8.22;98.49
4085;BME280;2057;50.858;6.572;2024-03-02T03:13:27;98839.81;;;8.23;98.39
4085;BME280;2057;50.858;6.572;2024-03-02T03:15:55;98837.19;;;8.20;98.75
4085;BME280;2057;50.858;6.572;2024-03-02T03:18:20;98838.75;;;8.16;99.81
4085;BME280;2057;50.858;6.572;2024-03-02T03:20:48;98840.50;;;8.19;100.00
4085;BME280;2057;50.858;6.572;2024-03-02T03:23:13;98839.53;;;8.14;100.00
4085;BME280;2057;50.858;6.572;2024-03-02T03:25:41;98843.81;;;8.16;100.00
4085;BME280;2057;50.858;6.572;2024-03-02T03:28:09;98845.53;;;8.18;100.00
4085;BME280;2057;50.858;6.572;2024-03-02T03:30:38;98842.22;;;8.20;100.00
4085;BME280;2057;50.858;6.572;2024-03-02T03:33:04;98839.53;;;8.14;100.00
4085;BME280;2057;50.858;6.572;2024-03-02T03:35:31;98839.72;;;8.20;99.77
4085;BME280;2057;50.858;6.572;2024-03-02T03:37:56;98839.59;;;8.17;100.00
4085;BME280;2057;50.858;6.572;2024-03-02T03:40:22;98846.53;;;8.23;99.37
4085;BME280;2057;50.858;6.572;2024-03-02T03:42:47;98845.69;;;8.22;99.74
4085;BME280;2057;50.858;6.572;2024-03-02T03:45:14;98850.44;;;8.13;100.00
4085;BME280;2057;50.858;6.572;2024-03-02T03:47:39;98845.25;;;8.08;100.00
4085;BME280;2057;50.858;6.572;2024-03-02T03:50:05;98854.25;;;8.00;100.00
4085;BME280;2057;50.858;6.572;2024-03-02T03:52:32;98849.03;;;7.95;100.00
4085;BME280;2057;50.858;6.572;2024-03-02T03:54:58;98849.88;;;7.96;100.00
4085;BME280;2057;50.858;6.572;2024-03-02T03:57:23;98852.38;;;7.94;100.00
4085;BME280;2057;50.858;6.572;2024-03-02T03:59:49;98853.94;;;7.91;100.00
4085;BME280;2057;50.858;6.572;2024-03-02T04:02:14;98857.75;;;7.79;100.00
4085;BME280;2057;50.858;6.572;2024-03-02T04:04:40;98855.03;;;7.73;100.00
4085;BME280;2057;50.858;6.572;2024-03-02T04:07:05;98861.81;;;7.74;100.00
4085;BME280;2057;50.858;6.572;2024-03-02T04:09:30;98864.34;;;7.74;100.00
4085;BME280;2057;50.858;6.572;2024-03-02T04:11:55;98856.59;;;7.69;100.00
4085;BME280;2057;50.858;6.572;2024-03-02T04:14:21;98846.53;;;7.71;100.00
4085;BME280;2057;50.858;6.572;2024-03-02T04:16:46;98853.94;;;7.65;100.00
4085;BME280;2057;50.858;6.572;2024-03-02T04:19:12;98853.94;;;7.65;100.00
4085;BME280;2057;50.858;6.572;2024-03-02T04:21:39;98853.97;;;7.66;100.00
4085;BME280;2057;50.858;6.572;2024-03-02T04:24:07;98851.28;;;7.62;100.00
4085;BME280;2057;50.858;6.572;2024-03-02T04:26:33;98849.69;;;7.64;100.00
4085;BME280;2057;50.858;6.572;2024-03-02T04:28:58;98840.50;;;7.66;100.00
4085;BME280;2057;50.858;6.572;2024-03-02T04:31:24;98827.78;;;7.64;100.00
4085;BME280;2057;50.858;6.572;2024-03-02T04:33:49;98834.53;;;7.64;100.00
4085;BME280;2057;50.858;6.572;2024-03-02T04:36:14;98842.78;;;7.60;100.00
4085;BME280;2057;50.858;6.572;2024-03-02T04:38:40;98846.19;;;7.60;100.00
4085;BME280;2057;50.858;6.572;2024-03-02T04:41:06;98849.53;;;7.59;100.00
4085;BME280;2057;50.858;6.572;2024-03-02T04:43:32;98846.84;;;7.54;100.00
4085;BME280;2057;50.858;6.572;2024-03-02T04:45:58;98845.31;;;7.60;100.00
4085;BME280;2057;50.858;6.572;2024-03-02T04:48:23;98847.59;;;7.52;100.00
4085;BME280;2057;50.858;6.572;2024-03-02T04:50:48;98851.72;;;7.50;100.00
4085;BME280;2057;50.858;6.572;2024-03-02T04:53:14;98858.53;;;7.52;100.00
4085;BME280;2057;50.858;6.572;2024-03-02T04:55:39;98863.50;;;7.49;100.00
4085;BME280;2057;50.858;6.572;2024-03-02T04:58:04;98860.06;;;7.47;100.00
4085;BME280;2057;50.858;6.572;2024-03-02T05:00:30;98849.88;;;7.46;100.00
4085;BME280;2057;50.858;6.572;2024-03-02T05:02:55;98857.38;;;7.43;100.00
4085;BME280;2057;50.858;6.572;2024-03-02T05:05:21;98850.44;;;7.37;100.00
4085;BME280;2057;50.858;6.572;2024-03-02T05:07:48;98849.44;;;7.32;100.00
4085;BME280;2057;50.858;6.572;2024-03-02T05:10:14;98857.84;;;7.32;100.00
4085;BME280;2057;50.858;6.572;2024-03-02T05:12:39;98851.88;;;7.30;100.00
4085;BME280;2057;50.858;6.572;2024-03-02T05:15:08;98855.97;;;7.27;100.00
4085;BME280;2057;50.858;6.572;2024-03-02T05:17:35;98857.84;;;7.32;100.00
4085;BME280;2057;50.858;6.572;2024-03-02T05:20:01;98861.03;;;7.27;100.00
4085;BME280;2057;50.858;6.572;2024-03-02T05:22:27;98859.25;;;7.24;100.00
4085;BME280;2057;50.858;6.572;2024-03-02T05:24:52;98864.13;;;7.19;100.00
4085;BME280;2057;50.858;6.572;2024-03-02T05:27:17;98867.56;;;7.21;100.00
4085;BME280;2057;50.858;6.572;2024-03-02T05:29:45;98863.28;;;7.19;100.00
4085;BME280;2057;50.858;6.572;2024-03-02T05:32:12;98864.28;;;7.24;100.00
4085;BME280;2057;50.858;6.572;2024-03-02T05:34:37;98864.47;;;7.29;100.00
4085;BME280;2057;50.858;6.572;2024-03-02T05:37:03;98863.28;;;7.19;100.00
4085;BME280;2057;50.858;6.572;2024-03-02T05:39:28;98860.81;;;7.20;100.00
4085;BME280;2057;50.858;6.572;2024-03-02T05:41:53;98878.25;;;7.14;100.00
4085;BME280;2057;50.858;6.572;2024-03-02T05:44:19;98860.06;;;7.23;100.00
4085;BME280;2057;50.858;6.572;2024-03-02T05:46:45;98869.19;;;7.19;100.00
4085;BME280;2057;50.858;6.572;2024-03-02T05:49:10;98876.59;;;7.15;100.00
4085;BME280;2057;50.858;6.572;2024-03-02T05:51:38;98868.09;;;7.13;100.00
4085;BME280;2057;50.858;6.572;2024-03-02T05:54:03;98857.16;;;7.12;100.00
4085;BME280;2057;50.858;6.572;2024-03-02T05:56:29;98870.84;;;7.19;100.00
4085;BME280;2057;50.858;6.572;2024-03-02T05:58:54;98880.66;;;7.11;100.00
4085;BME280;2057;50.858;6.572;2024-03-02T06:01:45;98888.22;;;7.11;100.00
4085;BME280;2057;50.858;6.572;2024-03-02T06:04:12;98884.91;;;7.12;100.00
4085;BME280;2057;50.858;6.572;2024-03-02T06:06:38;98889.84;;;7.09;100.00
4085;BME280;2057;50.858;6.572;2024-03-02T06:09:04;98902.56;;;7.12;100.00
4085;BME280;2057;50.858;6.572;2024-03-02T06:11:37;98907.50;;;7.09;100.00
4085;BME280;2057;50.858;6.572;2024-03-02T06:14:03;98897.34;;;7.07;100.00
4085;BME280;2057;50.858;6.572;2024-03-02T06:16:29;98907.31;;;7.04;100.00
4085;BME280;2057;50.858;6.572;2024-03-02T06:18:55;98909.00;;;7.04;100.00
4085;BME280;2057;50.858;6.572;2024-03-02T06:21:23;98898.81;;;7.02;100.00
4085;BME280;2057;50.858;6.572;2024-03-02T06:23:48;98893.63;;;6.98;100.00
4085;BME280;2057;50.858;6.572;2024-03-02T06:26:14;98902.84;;;6.97;100.00
4085;BME280;2057;50.858;6.572;2024-03-02T06:28:39;98906.94;;;6.94;100.00
4085;BME280;2057;50.858;6.572;2024-03-02T06:31:04;98911.97;;;6.94;100.00
4085;BME280;2057;50.858;6.572;2024-03-02T06:33:30;98904.19;;;6.87;100.00
4085;BME280;2057;50.858;6.572;2024-03-02T06:35:55;98904.28;;;6.90;100.00
4085;BME280;2057;50.858;6.572;2024-03-02T06:38:20;98910.81;;;6.85;100.00
4085;BME280;2057;50.858;6.572;2024-03-02T06:40:48;98905.06;;;6.89;100.00
4085;BME280;2057;50.858;6.572;2024-03-02T06:43:13;98916.03;;;6.90;100.00
4085;BME280;2057;50.858;6.572;2024-03-02T06:45:38;98911.97;;;6.94;100.00
4085;BME280;2057;50.858;6.572;2024-03-02T06:48:04;98914.50;;;6.94;100.00
4085;BME280;2057;50.858;6.572;2024-03-02T06:50:32;98907.06;;;6.97;100.00
4085;BME280;2057;50.858;6.572;2024-03-02T06:52:57;98915.63;;;7.02;100.00
4085;BME280;2057;50.858;6.572;2024-03-02T06:55:22;98907.31;;;7.04;100.00
4085;BME280;2057;50.858;6.572;2024-03-02T06:57:49;98911.78;;;7.12;100.00
4085;BME280;2057;50.858;6.572;2024-03-02T07:00:20;98912.72;;;7.14;100.00
4085;BME280;2057;50.858;6.572;2024-03-02T07:02:46;98915.22;;;7.14;100.00
4085;BME280;2057;50.858;6.572;2024-03-02T07:05:13;98906.09;;;7.17;100.00
4085;BME280;2057;50.858;6.572;2024-03-02T07:07:39;98905.31;;;7.18;100.00
4085;BME280;2057;50.858;6.572;2024-03-02T07:10:05;98913.09;;;7.25;100.00
4085;BME280;2057;50.858;6.572;2024-03-02T07:12:33;98918.16;;;7.25;100.00
4085;BME280;2057;50.858;6.572;2024-03-02T07:14:58;98932.63;;;7.29;100.00
4085;BME280;2057;50.858;6.572;2024-03-02T07:17:31;98923.59;;;7.35;100.00
4085;BME280;2057;50.858;6.572;2024-03-02T07:19:56;98921.94;;;7.36;100.00
4085;BME280;2057;50.858;6.572;2024-03-02T07:22:24;98921.09;;;7.35;100.00
4085;BME280;2057;50.858;6.572;2024-03-02T07:24:49;98918.78;;;7.42;100.00
4085;BME280;2057;50.858;6.572;2024-03-02T07:27:17;98909.84;;;7.51;100.00
4085;BME280;2057;50.858;6.572;2024-03-02T07:29:43;98917.75;;;7.61;100.00
4085;BME280;2057;50.858;6.572;2024-03-02T07:32:09;98922.91;;;7.64;100.00
4085;BME280;2057;50.858;6.572;2024-03-02T07:34:35;98934.75;;;7.65;100.00
4085;BME280;2057;50.858;6.572;2024-03-02T07:37:01;98929.75;;;7.66;100.00
4085;BME280;2057;50.858;6.572;2024-03-02T07:39:27;98923.09;;;7.68;100.00
4085;BME280;2057;50.858;6.572;2024-03-02T07:41:52;98935.59;;;7.65;100.00
4085;BME280;2057;50.858;6.572;2024-03-02T07:44:20;98940.81;;;7.70;100.00
4085;BME280;2057;50.858;6.572;2024-03-02T07:46:46;98938.19;;;7.67;100.00
4085;BME280;2057;50.858;6.572;2024-03-02T07:49:13;98949.97;;;7.68;100.00
4085;BME280;2057;50.858;6.572;2024-03-02T07:51:48;98964.28;;;7.67;100.00
4085;BME280;2057;50.858;6.572;2024-03-02T07:54:13;98970.09;;;7.65;100.00
4085;BME280;2057;50.858;6.572;2024-03-02T07:56:39;98970.19;;;7.68;100.00
4085;BME280;2057;50.858;6.572;2024-03-02T07:59:04;98965.84;;;7.64;100.00
4085;BME280;2057;50.858;6.572;2024-03-02T08:01:30;98975.91;;;7.62;100.00
4085;BME280;2057;50.858;6.572;2024-03-02T08:04:00;98970.09;;;7.65;100.00
4085;BME280;2057;50.858;6.572;2024-03-02T08:06:30;98968.38;;;7.64;100.00
4085;BME280;2057;50.858;6.572;2024-03-02T08:08:59;98965.66;;;7.58;100.00
4085;BME280;2057;50.858;6.572;2024-03-02T08:11:25;98969.19;;;7.63;100.00
4085;BME280;2057;50.858;6.572;2024-03-02T08:13:54;98971.72;;;7.63;100.00
4085;BME280;2057;50.858;6.572;2024-03-02T08:16:21;98970.84;;;7.62;100.00
4085;BME280;2057;50.858;6.572;2024-03-02T08:18:50;98971.06;;;7.68;100.00
4085;BME280;2057;50.858;6.572;2024-03-02T08:21:16;98972.41;;;7.83;100.00
4085;BME280;2057;50.858;6.572;2024-03-02T08:23:42;98972.78;;;7.94;100.00
4085;BME280;2057;50.858;6.572;2024-03-02T08:26:11;98963.69;;;7.99;100.00
4085;BME280;2057;50.858;6.572;2024-03-02T08:28:36;98967.22;;;8.04;100.00
4085;BME280;2057;50.858;6.572;2024-03-02T08:31:03;98959.06;;;8.11;100.00
4085;BME280;2057;50.858;6.572;2024-03-02T08:33:28;98953.19;;;8.12;100.00
4085;BME280;2057;50.858;6.572;2024-03-02T08:35:56;98955.72;;;8.12;100.00
4085;BME280;2057;50.858;6.572;2024-03-02T08:38:22;98959.38;;;8.21;100.00
4085;BME280;2057;50.858;6.572;2024-03-02T08:40:47;98956.03;;;8.22;100.00
4085;BME280;2057;50.858;6.572;2024-03-02T08:53:33;98971.22;;;8.47;100.00
4085;BME280;2057;50.858;6.572;2024-03-02T08:56:01;98973.25;;;8.58;100.00
4085;BME280;2057;50.858;6.572;2024-03-02T08:58:29;98971.72;;;8.63;100.00
4085;BME280;2057;50.858;6.572;2024-03-02T09:00:54;98981.84;;;8.63;100.00
4085;BME280;2057;50.858;6.572;2024-03-02T09:03:22;98977.06;;;8.72;100.00
4085;BME280;2057;50.858;6.572;2024-03-02T09:05:47;98978.94;;;8.78;100.00
4085;BME280;2057;50.858;6.572;2024-03-02T09:08:13;98977.47;;;8.85;100.00
4085;BME280;2057;50.858;6.572;2024-03-02T09:10:38;98965.66;;;8.85;100.00
4085;BME280;2057;50.858;6.572;2024-03-02T09:13:04;98968.13;;;8.82;100.00
4085;BME280;2057;50.858;6.572;2024-03-02T09:15:30;98964.69;;;8.80;100.00
4085;BME280;2057;50.858;6.572;2024-03-02T09:17:55;98975.94;;;8.90;100.00
4085;BME280;2057;50.858;6.572;2024-03-02T09:20:20;98966.03;;;8.96;100.00
4085;BME280;2057;50.858;6.572;2024-03-02T09:22:46;98973.53;;;8.94;97.58
4085;BME280;2057;50.858;6.572;2024-03-02T09:25:14;98981.38;;;9.02;98.09
4085;BME280;2057;50.858;6.572;2024-03-02T09:27:41;98982.56;;;9.14;99.41
4085;BME280;2057;50.858;6.572;2024-03-02T09:30:12;98977.09;;;9.29;98.48
4085;BME280;2057;50.858;6.572;2024-03-02T09:32:39;98972.44;;;9.42;99.00
4085;BME280;2057;50.858;6.572;2024-03-02T09:35:06;98972.44;;;9.42;95.76
4085;BME280;2057;50.858;6.572;2024-03-02T09:37:35;98964.53;;;9.62;95.86
4085;BME280;2057;50.858;6.572;2024-03-02T09:40:01;98963.06;;;9.70;93.22
4085;BME280;2057;50.858;6.572;2024-03-02T09:42:29;98964.53;;;9.62;94.02
4085;BME280;2057;50.858;6.572;2024-03-02T09:44:55;98964.53;;;9.62;95.35
4085;BME280;2057;50.858;6.572;2024-03-02T09:47:22;98969.59;;;9.62;95.34
4085;BME280;2057;50.858;6.572;2024-03-02T09:49:47;98967.88;;;9.61;95.61
4085;BME280;2057;50.858;6.572;2024-03-02T09:52:13;98972.03;;;9.59;93.85
4085;BME280;2057;50.858;6.572;2024-03-02T09:54:39;98978.06;;;9.63;94.25
4085;BME280;2057;50.858;6.572;2024-03-02T09:57:05;98968.31;;;9.77;93.50
4085;BME280;2057;50.858;6.572;2024-03-02T09:59:30;98966.69;;;9.79;92.80
4085;BME280;2057;50.858;6.572;2024-03-02T10:02:01;98977.97;;;9.90;93.35
4085;BME280;2057;50.858;6.572;2024-03-02T10:04:34;98969.16;;;10.09;93.71
4085;BME280;2057;50.858;6.572;2024-03-02T10:07:15;98973.66;;;10.19;91.52
4085;BME280;2057;50.858;6.572;2024-03-02T10:09:42;98972.38;;;10.35;90.62
4085;BME280;2057;50.858;6.572;2024-03-02T10:12:11;98969.34;;;10.49;88.95
4085;BME280;2057;50.858;6.572;2024-03-02T10:14:39;98976.97;;;10.49;88.66
4085;BME280;2057;50.858;6.572;2024-03-02T10:17:09;98970.53;;;10.63;88.54
4085;BME280;2057;50.858;6.572;2024-03-02T10:19:35;98969.03;;;10.72;88.68
4085;BME280;2057;50.858;6.572;2024-03-02T10:22:03;98960.81;;;10.82;87.38
4085;BME280;2057;50.858;6.572;2024-03-02T10:24:41;98963.03;;;10.68;87.49
4085;BME280;2057;50.858;6.572;2024-03-02T10:27:17;98958.88;;;10.72;86.14
4085;BME280;2057;50.858;6.572;2024-03-02T10:29:48;98958.16;;;10.76;87.36
4085;BME280;2057;50.858;6.572;2024-03-02T10:32:15;98949.72;;;10.78;84.44
4085;BME280;2057;50.858;6.572;2024-03-02T10:34:44;98949.22;;;10.93;85.32
4085;BME280;2057;50.858;6.572;2024-03-02T10:37:11;98939.19;;;10.99;82.73
4085;BME280;2057;50.858;6.572;2024-03-02T10:39:36;98940.19;;;11.06;81.33
4085;BME280;2057;50.858;6.572;2024-03-02T10:57:41;98935.75;;;11.82;79.04
4085;BME280;2057;50.858;6.572;2024-03-02T11:00:12;98932.03;;;11.63;74.83
4085;BME280;2057;50.858;6.572;2024-03-02T11:02:43;98927.66;;;11.55;74.24
4085;BME280;2057;50.858;6.572;2024-03-02T11:05:12;98927.78;;;11.63;73.43
4085;BME280;2057;50.858;6.572;2024-03-02T11:07:39;98935.84;;;11.86;74.33
4085;BME280;2057;50.858;6.572;2024-03-02T11:10:08;98937.50;;;11.84;72.86
4085;BME280;2057;50.858;6.572;2024-03-02T11:12:38;98924.25;;;12.01;73.70
4085;BME280;2057;50.858;6.572;2024-03-02T11:15:10;98932.19;;;12.18;75.15
4085;BME280;2057;50.858;6.572;2024-03-02T11:17:38;98932.25;;;12.21;74.58
4085;BME280;2057;50.858;6.572;2024-03-02T11:20:06;98935.41;;;12.07;72.39
4085;BME280;2057;50.858;6.572;2024-03-02T11:22:35;98930.47;;;12.15;72.76
4085;BME280;2057;50.858;6.572;2024-03-02T11:25:01;98936.31;;;12.10;74.15
4085;BME280;2057;50.858;6.572;2024-03-02T11:33:04;98929.16;;;12.39;72.23
4085;BME280;2057;50.858;6.572;2024-03-02T11:35:41;98925.16;;;12.55;72.51
4085;BME280;2057;50.858;6.572;2024-03-02T11:38:13;98918.53;;;12.65;72.37
4085;BME280;2057;50.858;6.572;2024-03-02T11:40:39;98920.84;;;12.49;71.12
4085;BME280;2057;50.858;6.572;2024-03-02T11:43:08;98914.31;;;12.65;70.30
4085;BME280;2057;50.858;6.572;2024-03-02T11:45:35;98907.94;;;12.38;72.02
4085;BME280;2057;50.858;6.572;2024-03-02T11:48:05;98909.59;;;12.35;71.67
4085;BME280;2057;50.858;6.572;2024-03-02T11:50:42;98912.00;;;12.27;70.89
4085;BME280;2057;50.858;6.572;2024-03-02T11:53:09;98900.19;;;12.31;72.46
4085;BME280;2057;50.858;6.572;2024-03-02T11:55:39;98897.66;;;12.32;71.42
4085;BME280;2057;50.858;6.572;2024-03-02T11:58:08;98890.75;;;12.25;70.70
4085;BME280;2057;50.858;6.572;2024-03-02T12:00:34;98892.56;;;12.32;72.39
4085;BME280;2057;50.858;6.572;2024-03-02T12:03:06;98879.06;;;12.36;72.27
4085;BME280;2057;50.858;6.572;2024-03-02T12:05:32;98873.16;;;12.39;74.11
4085;BME280;2057;50.858;6.572;2024-03-02T12:07:58;98863.03;;;12.42;75.53
4085;BME280;2057;50.858;6.572;2024-03-02T12:10:25;98852.00;;;12.42;73.99
4085;BME280;2057;50.858;6.572;2024-03-02T12:13:01;98852.13;;;12.49;74.80
4085;BME280;2057;50.858;6.572;2024-03-02T12:15:30;98852.13;;;12.49;73.40
4085;BME280;2057;50.858;6.572;2024-03-02T12:17:56;98845.38;;;12.51;73.72
4085;BME280;2057;50.858;6.572;2024-03-02T12:20:26;98852.13;;;12.51;76.06
4085;BME280;2057;50.858;6.572;2024-03-02T12:22:53;98850.34;;;12.44;71.68
4085;BME280;2057;50.858;6.572;2024-03-02T12:25:20;98851.16;;;12.44;71.36
4085;BME280;2057;50.858;6.572;2024-03-02T12:27:49;98857.00;;;12.35;70.17
4085;BME280;2057;50.858;6.572;2024-03-02T12:30:18;98860.50;;;12.42;70.87
4085;BME280;2057;50.858;6.572;2024-03-02T12:32:44;98854.59;;;12.45;71.81
4085;BME280;2057;50.858;6.572;2024-03-02T12:35:10;98852.81;;;12.40;71.66
4085;BME280;2057;50.858;6.572;2024-03-02T12:37:44;98853.00;;;12.51;75.20
4085;BME280;2057;50.858;6.572;2024-03-02T12:40:11;98856.25;;;12.43;78.72
4085;BME280;2057;50.858;6.572;2024-03-02T12:42:37;98846.81;;;12.34;78.90
4085;BME280;2057;50.858;6.572;2024-03-02T12:45:03;98845.00;;;12.28;78.48
4085;BME280;2057;50.858;6.572;2024-03-02T12:47:31;98856.09;;;12.32;80.20
4085;BME280;2057;50.858;6.572;2024-03-02T12:49:56;98846.94;;;12.43;80.61
4085;BME280;2057;50.858;6.572;2024-03-02T12:52:23;98841.84;;;12.43;79.08
4085;BME280;2057;50.858;6.572;2024-03-02T12:54:49;98843.72;;;12.57;80.22
4085;BME280;2057;50.858;6.572;2024-03-02T12:57:20;98835.25;;;12.58;79.15
4085;BME280;2057;50.858;6.572;2024-03-02T12:59:46;98843.66;;;12.50;78.43
4085;BME280;2057;50.858;6.572;2024-03-02T13:02:18;98840.28;;;12.51;77.51
4085;BME280;2057;50.858;6.572;2024-03-02T13:04:43;98838.56;;;12.53;78.53
4085;BME280;2057;50.858;6.572;2024-03-02T13:07:10;98837.97;;;12.70;79.23
4085;BME280;2057;50.858;6.572;2024-03-02T13:09:37;98829.06;;;13.06;75.10
4085;BME280;2057;50.858;6.572;2024-03-02T13:12:03;98829.97;;;13.10;74.26
4085;BME280;2057;50.858;6.572;2024-03-02T13:14:32;98825.91;;;13.26;74.30
4085;BME280;2057;50.858;6.572;2024-03-02T13:16:57;98828.78;;;13.54;73.01
4085;BME280;2057;50.858;6.572;2024-03-02T13:19:23;98828.16;;;13.79;74.15
4085;BME280;2057;50.858;6.572;2024-03-02T13:21:48;98825.78;;;14.00;71.77
4085;BME280;2057;50.858;6.572;2024-03-02T13:24:16;98824.84;;;13.90;71.11
4085;BME280;2057;50.858;6.572;2024-03-02T13:26:42;98820.00;;;14.24;70.40
4085;BME280;2057;50.858;6.572;2024-03-02T13:29:07;98815.78;;;14.26;69.46
4085;BME280;2057;50.858;6.572;2024-03-02T13:31:33;98821.75;;;14.31;69.38
4085;BME280;2057;50.858;6.572;2024-03-02T13:33:58;98823.22;;;14.01;69.44
4085;BME280;2057;50.858;6.572;2024-03-02T13:36:23;98818.09;;;13.95;71.68
4085;BME280;2057;50.858;6.572;2024-03-02T13:38:49;98818.63;;;13.61;71.35
4085;BME280;2057;50.858;6.572;2024-03-02T13:41:14;98816.72;;;13.39;71.65
4085;BME280;2057;50.858;6.572;2024-03-02T13:43:40;98809.03;;;13.37;71.51
4085;BME280;2057;50.858;6.572;2024-03-02T13:46:05;98808.94;;;13.31;72.28
4085;BME280;2057;50.858;6.572;2024-03-02T13:48:31;98805.47;;;13.20;72.31
4085;BME280;2057;50.858;6.572;2024-03-02T13:50:57;98800.41;;;13.26;73.50
4085;BME280;2057;50.858;6.572;2024-03-02T13:53:22;98796.16;;;13.23;73.57